Time;durP1;ratioP1;P1;durP2;ratioP2;P2;SDS_P1;SDS_P2;PMS_P1;PMS_P2;Temp;Humidity;BMP_temperature;BMP_pressure;BME280_temperature;BME280_humidity;BME280_pressure;Samples;Min_cycle;Max_cycle;Signal;HPM_P1;HPM_P2
2023/02/15 00:02:33;;;;;;;46.85;24.60;;;;;;;;;;5088458;28;20035;-73
2023/02/15 00:05:19;;;;;;;48.05;24.42;;;;;;;;;;5088430;28;20020;-73
2023/02/15 00:08:04;;;;;;;49.05;26.08;;;;;;;;;;5077602;28;20050;-75
2023/02/15 00:10:50;;;;;;;46.42;24.27;;;;;;;;;;5074538;28;20098;-74
2023/02/15 00:13:36;;;;;;;43.30;23.65;;;;;;;;;;5077212;28;20020;-75
2023/02/15 00:16:24;;;;;;;46.00;23.90;;;;;;;;;;5076318;28;20024;-75
2023/02/15 00:19:11;;;;;;;47.05;23.83;;;;;;;;;;5076542;28;20043;-75
2023/02/15 00:21:56;;;;;;;42.47;22.67;;;;;;;;;;5075991;28;20082;-75
2023/02/15 00:24:42;;;;;;;38.10;20.95;;;;;;;;;;5076026;28;20052;-75
2023/02/15 00:27:27;;;;;;;37.35;20.98;;;;;;;;;;5076696;28;20043;-75
2023/02/15 00:30:13;;;;;;;38.03;20.27;;;;;;;;;;5075622;28;20104;-77
2023/02/15 00:32:59;;;;;;;36.97;21.15;;;;;;;;;;5074590;28;20045;-75
2023/02/15 00:35:45;;;;;;;38.20;20.90;;;;;;;;;;5075876;28;20044;-75
2023/02/15 00:38:31;;;;;;;34.70;19.75;;;;;;;;;;5075880;28;20023;-75
2023/02/15 00:41:17;;;;;;;38.80;21.00;;;;;;;;;;5076896;28;20019;-75
2023/02/15 00:44:02;;;;;;;37.95;19.75;;;;;;;;;;5076796;28;20032;-74
2023/02/15 00:46:48;;;;;;;36.53;20.40;;;;;;;;;;5075917;28;20392;-75
2023/02/15 00:49:34;;;;;;;41.33;19.38;;;;;;;;;;5075162;28;20017;-74
2023/02/15 00:52:19;;;;;;;39.10;20.17;;;;;;;;;;5075820;28;20028;-74
2023/02/15 00:55:05;;;;;;;34.08;18.85;;;;;;;;;;5075314;28;20447;-75
2023/02/15 00:57:51;;;;;;;40.92;21.10;;;;;;;;;;5075054;28;20341;-74
2023/02/15 01:00:37;;;;;;;37.38;20.02;;;;;;;;;;5076928;28;20078;-74
2023/02/15 01:03:22;;;;;;;39.95;20.45;;;;;;;;;;5075353;28;20024;-75
2023/02/15 01:06:08;;;;;;;38.58;20.88;;;;;;;;;;5076121;28;20021;-75
2023/02/15 01:08:54;;;;;;;37.72;20.63;;;;;;;;;;5076585;28;20037;-75
2023/02/15 01:11:39;;;;;;;35.30;19.58;;;;;;;;;;5074697;28;20043;-75
2023/02/15 01:14:25;;;;;;;37.67;19.95;;;;;;;;;;5075171;28;20017;-75
2023/02/15 01:17:11;;;;;;;39.45;21.33;;;;;;;;;;5074875;28;20021;-74
2023/02/15 01:19:56;;;;;;;40.63;21.50;;;;;;;;;;5076175;28;20020;-73
2023/02/15 01:22:42;;;;;;;38.17;21.00;;;;;;;;;;5074678;28;20067;-75
2023/02/15 01:25:27;;;;;;;38.08;20.02;;;;;;;;;;5076036;28;20353;-74
2023/02/15 01:28:13;;;;;;;39.55;20.40;;;;;;;;;;5074797;28;20429;-73
2023/02/15 01:30:59;;;;;;;38.30;20.83;;;;;;;;;;5075449;28;20031;-74
2023/02/15 01:33:45;;;;;;;37.58;19.73;;;;;;;;;;5074182;28;20445;-73
2023/02/15 01:36:32;;;;;;;44.00;22.80;;;;;;;;;;5074368;28;20044;-75
2023/02/15 01:39:18;;;;;;;45.53;23.60;;;;;;;;;;5076001;28;20039;-74
2023/02/15 01:42:04;;;;;;;45.47;23.30;;;;;;;;;;5074883;28;20330;-75
2023/02/15 01:44:55;;;;;;;44.03;23.35;;;;;;;;;;5075551;28;20063;-75
2023/02/15 01:47:46;;;;;;;44.03;23.95;;;;;;;;;;5075485;28;20024;-75
2023/02/15 01:50:55;;;;;;;48.50;25.80;;;;;;;;;;5074620;28;20055;-75
2023/02/15 01:53:43;;;;;;;52.20;26.92;;;;;;;;;;5075163;28;20046;-74
2023/02/15 01:56:33;;;;;;;48.45;25.70;;;;;;;;;;5074050;28;20020;-75
2023/02/15 01:59:20;;;;;;;45.38;25.88;;;;;;;;;;5074715;28;20020;-75
2023/02/15 02:02:07;;;;;;;41.92;24.08;;;;;;;;;;5074211;28;20525;-74
2023/02/15 02:04:56;;;;;;;44.40;23.80;;;;;;;;;;5075530;28;20154;-76
2023/02/15 02:07:43;;;;;;;44.08;23.60;;;;;;;;;;5074176;28;20029;-75
2023/02/15 02:10:29;;;;;;;41.05;23.45;;;;;;;;;;5074949;28;20047;-74
2023/02/15 02:13:14;;;;;;;42.80;23.98;;;;;;;;;;5074133;28;20025;-74
2023/02/15 02:16:04;;;;;;;43.65;23.52;;;;;;;;;;5074434;28;20012;-73
2023/02/15 02:18:49;;;;;;;41.95;23.48;;;;;;;;;;5074723;28;20020;-73
2023/02/15 02:21:53;;;;;;;40.03;23.23;;;;;;;;;;5074496;28;20093;-75
2023/02/15 02:24:48;;;;;;;44.08;23.23;;;;;;;;;;5074183;28;20039;-74
2023/02/15 02:27:33;;;;;;;41.83;22.88;;;;;;;;;;5073173;28;20356;-74
2023/02/15 02:30:38;;;;;;;41.72;22.25;;;;;;;;;;5074728;28;20028;-74
2023/02/15 02:33:33;;;;;;;41.50;23.10;;;;;;;;;;5072942;28;20453;-75
2023/02/15 02:36:27;;;;;;;45.30;23.60;;;;;;;;;;5073782;28;20330;-75
2023/02/15 02:39:31;;;;;;;49.67;25.13;;;;;;;;;;5074007;28;20426;-74
2023/02/15 02:42:35;;;;;;;43.15;24.20;;;;;;;;;;5074199;28;20043;-74
2023/02/15 02:45:38;;;;;;;44.40;25.05;;;;;;;;;;5074068;28;20070;-74
2023/02/15 02:48:25;;;;;;;46.60;24.67;;;;;;;;;;5075188;28;20052;-72
2023/02/15 02:51:11;;;;;;;50.13;26.17;;;;;;;;;;5075783;28;20025;-74
2023/02/15 02:53:58;;;;;;;47.28;25.10;;;;;;;;;;5074017;28;20055;-74
2023/02/15 02:56:46;;;;;;;44.28;25.02;;;;;;;;;;5073437;28;20031;-75
2023/02/15 02:59:40;;;;;;;44.90;24.48;;;;;;;;;;5073099;28;20036;-74
2023/02/15 03:02:31;;;;;;;48.03;25.30;;;;;;;;;;5073291;28;20029;-74
2023/02/15 03:05:21;;;;;;;46.88;25.30;;;;;;;;;;5073327;28;20025;-75
2023/02/15 03:08:09;;;;;;;49.90;25.50;;;;;;;;;;5073636;28;20021;-73
2023/02/15 03:10:56;;;;;;;46.15;24.30;;;;;;;;;;5074344;28;20110;-75
2023/02/15 03:13:43;;;;;;;48.13;25.40;;;;;;;;;;5078196;28;20100;-74
2023/02/15 03:16:29;;;;;;;48.75;25.90;;;;;;;;;;5077524;28;20074;-73
2023/02/15 03:19:21;;;;;;;45.83;24.60;;;;;;;;;;5078873;28;20047;-75
2023/02/15 03:22:11;;;;;;;49.25;26.90;;;;;;;;;;5075038;28;20368;-75
2023/02/15 03:24:59;;;;;;;49.72;27.13;;;;;;;;;;5073285;28;20024;-76
2023/02/15 03:27:47;;;;;;;49.85;27.30;;;;;;;;;;5074385;28;20020;-75
2023/02/15 03:30:34;;;;;;;54.35;28.10;;;;;;;;;;5072889;28;20464;-76
2023/02/15 03:33:21;;;;;;;49.60;27.13;;;;;;;;;;5073330;28;20101;-75
2023/02/15 03:36:06;;;;;;;53.15;27.77;;;;;;;;;;5073134;28;20062;-75
2023/02/15 03:38:52;;;;;;;50.67;26.73;;;;;;;;;;5074074;28;20098;-75
2023/02/15 03:41:40;;;;;;;51.78;28.20;;;;;;;;;;5072999;28;20020;-74
2023/02/15 03:44:30;;;;;;;49.95;27.30;;;;;;;;;;5072822;28;20024;-75
2023/02/15 03:47:17;;;;;;;50.15;25.67;;;;;;;;;;5076222;28;20032;-74
2023/02/15 03:53:20;;;;;;;49.75;26.52;;;;;;;;;;5077078;28;20417;-75
2023/02/15 03:56:05;;;;;;;52.95;27.65;;;;;;;;;;5076084;28;20167;-75
2023/02/15 04:01:58;;;;;;;49.92;26.40;;;;;;;;;;5076620;28;20345;-76
2023/02/15 04:04:46;;;;;;;50.80;27.13;;;;;;;;;;5075972;28;20028;-75
2023/02/15 04:07:31;;;;;;;50.70;26.23;;;;;;;;;;5076508;28;20130;-75
2023/02/15 04:13:31;;;;;;;51.65;26.67;;;;;;;;;;5076271;28;20017;-75
2023/02/15 04:16:16;;;;;;;55.20;27.42;;;;;;;;;;5077307;28;20091;-76
2023/02/15 04:25:11;;;;;;;51.90;27.48;;;;;;;;;;5077333;28;20309;-75
2023/02/15 04:27:57;;;;;;;53.08;27.38;;;;;;;;;;5076596;28;20170;-76
2023/02/15 04:30:42;;;;;;;53.70;27.25;;;;;;;;;;5075612;28;20086;-76
2023/02/15 04:33:28;;;;;;;50.17;25.85;;;;;;;;;;5075121;28;20040;-76
2023/02/15 04:36:13;;;;;;;52.55;28.27;;;;;;;;;;5076534;28;20028;-77
2023/02/15 04:38:59;;;;;;;55.80;28.02;;;;;;;;;;5074789;28;20008;-76
2023/02/15 04:41:48;;;;;;;54.90;28.33;;;;;;;;;;5075119;28;20098;-76
2023/02/15 04:44:33;;;;;;;52.05;27.88;;;;;;;;;;5076992;28;20024;-75
2023/02/15 04:47:19;;;;;;;53.60;29.33;;;;;;;;;;5076934;28;20103;-74
2023/02/15 04:50:05;;;;;;;55.75;29.23;;;;;;;;;;5077414;28;20028;-75
2023/02/15 04:52:50;;;;;;;57.72;28.88;;;;;;;;;;5076523;28;20429;-75
2023/02/15 04:55:36;;;;;;;56.47;28.77;;;;;;;;;;5075720;28;20081;-74
2023/02/15 04:58:21;;;;;;;55.30;27.73;;;;;;;;;;5074476;28;20103;-75
2023/02/15 05:01:08;;;;;;;57.28;29.05;;;;;;;;;;5075186;28;20024;-75
2023/02/15 05:03:53;;;;;;;54.75;28.73;;;;;;;;;;5076910;28;20025;-71
2023/02/15 05:06:39;;;;;;;58.92;29.90;;;;;;;;;;5074934;28;20017;-74
2023/02/15 05:09:24;;;;;;;54.85;29.35;;;;;;;;;;5074810;28;20064;-73
2023/02/15 05:12:10;;;;;;;55.83;29.95;;;;;;;;;;5079892;28;20038;-72
2023/02/15 05:14:56;;;;;;;61.08;31.73;;;;;;;;;;5088498;28;20080;-73
2023/02/15 05:17:41;;;;;;;56.95;30.13;;;;;;;;;;5088658;28;20594;-75
2023/02/15 05:20:27;;;;;;;59.63;30.77;;;;;;;;;;5076466;28;20071;-74
2023/02/15 05:23:13;;;;;;;64.03;30.50;;;;;;;;;;5076580;28;20364;-77
2023/02/15 05:29:03;;;;;;;57.10;30.80;;;;;;;;;;5075369;28;20021;-74
2023/02/15 05:31:49;;;;;;;60.10;30.85;;;;;;;;;;5074086;28;20490;-75
2023/02/15 05:34:34;;;;;;;58.38;29.80;;;;;;;;;;5074461;28;20397;-74
2023/02/15 05:37:20;;;;;;;55.05;29.98;;;;;;;;;;5074045;28;20077;-75
2023/02/15 05:40:06;;;;;;;60.58;30.55;;;;;;;;;;5074716;28;20067;-76
2023/02/15 05:42:51;;;;;;;57.25;29.50;;;;;;;;;;5074542;28;20103;-76
2023/02/15 05:45:37;;;;;;;55.53;29.05;;;;;;;;;;5074290;28;20441;-75
2023/02/15 05:48:24;;;;;;;55.78;28.77;;;;;;;;;;5074376;28;20047;-75
2023/02/15 05:51:13;;;;;;;54.88;28.52;;;;;;;;;;5073800;28;20099;-76
2023/02/15 05:53:58;;;;;;;55.95;29.15;;;;;;;;;;5074683;28;20028;-76
2023/02/15 05:56:44;;;;;;;54.75;28.83;;;;;;;;;;5074245;28;20013;-75
2023/02/15 05:59:29;;;;;;;56.45;28.55;;;;;;;;;;5074146;28;20039;-74
2023/02/15 06:02:15;;;;;;;58.88;29.50;;;;;;;;;;5074909;28;20061;-74
2023/02/15 06:05:00;;;;;;;59.42;29.90;;;;;;;;;;5075461;28;20036;-75
2023/02/15 06:07:46;;;;;;;60.30;30.75;;;;;;;;;;5073860;28;20054;-75
2023/02/15 06:10:32;;;;;;;62.80;31.42;;;;;;;;;;5073826;28;20048;-74
2023/02/15 06:13:17;;;;;;;56.85;30.75;;;;;;;;;;5074282;28;20039;-75
2023/02/15 06:16:03;;;;;;;59.00;32.45;;;;;;;;;;5073741;28;20032;-74
2023/02/15 06:18:48;;;;;;;61.10;30.90;;;;;;;;;;5074128;28;20013;-74
2023/02/15 06:21:34;;;;;;;58.38;30.48;;;;;;;;;;5073795;28;20013;-73
2023/02/15 06:24:20;;;;;;;64.35;31.45;;;;;;;;;;5073459;28;20094;-74
2023/02/15 06:27:05;;;;;;;58.92;31.38;;;;;;;;;;5073427;28;20020;-74
2023/02/15 06:29:51;;;;;;;60.55;32.45;;;;;;;;;;5073232;28;20027;-74
2023/02/15 06:32:36;;;;;;;59.60;31.63;;;;;;;;;;5074065;28;20446;-74
2023/02/15 06:35:22;;;;;;;65.78;32.53;;;;;;;;;;5074915;28;20032;-73
2023/02/15 06:38:08;;;;;;;59.42;32.05;;;;;;;;;;5075145;28;20445;-73
2023/02/15 06:40:53;;;;;;;68.00;33.00;;;;;;;;;;5073348;28;20028;-74
2023/02/15 06:43:39;;;;;;;65.90;34.00;;;;;;;;;;5074177;28;20028;-74
2023/02/15 06:46:24;;;;;;;69.45;34.30;;;;;;;;;;5072956;28;20338;-72
2023/02/15 06:49:10;;;;;;;65.25;34.38;;;;;;;;;;5073221;28;20309;-73
2023/02/15 06:51:55;;;;;;;68.80;34.75;;;;;;;;;;5075199;28;20087;-73
2023/02/15 06:54:41;;;;;;;65.25;33.75;;;;;;;;;;5074062;28;20108;-74
2023/02/15 06:57:27;;;;;;;66.05;33.88;;;;;;;;;;5073065;28;20017;-75
2023/02/15 07:00:12;;;;;;;67.75;36.05;;;;;;;;;;5074464;28;20039;-74
2023/02/15 07:02:58;;;;;;;66.10;36.15;;;;;;;;;;5075562;28;20090;-73
2023/02/15 07:05:45;;;;;;;67.57;36.78;;;;;;;;;;5073724;28;20017;-73
2023/02/15 07:08:30;;;;;;;66.18;34.97;;;;;;;;;;5074056;28;20369;-73
2023/02/15 07:14:37;;;;;;;65.97;34.80;;;;;;;;;;5014892;28;20037;-72
2023/02/15 07:17:22;;;;;;;68.05;36.00;;;;;;;;;;5031037;28;20067;-72
2023/02/15 07:20:16;;;;;;;66.35;35.22;;;;;;;;;;5034653;28;20037;-72
2023/02/15 07:23:01;;;;;;;64.88;33.42;;;;;;;;;;5035614;28;20476;-72
2023/02/15 07:25:47;;;;;;;65.13;35.10;;;;;;;;;;5038482;28;20453;-71
2023/02/15 07:28:34;;;;;;;69.32;34.75;;;;;;;;;;5035365;28;20444;-73
2023/02/15 07:31:19;;;;;;;65.47;34.83;;;;;;;;;;5033092;28;20049;-74
2023/02/15 07:34:05;;;;;;;65.22;34.97;;;;;;;;;;5041503;28;20069;-73
2023/02/15 07:36:51;;;;;;;66.28;34.72;;;;;;;;;;5036162;28;20029;-77
2023/02/15 07:39:37;;;;;;;65.57;34.78;;;;;;;;;;5035019;28;20126;-72
2023/02/15 07:42:23;;;;;;;60.65;33.25;;;;;;;;;;5032881;28;20386;-73
2023/02/15 07:45:08;;;;;;;60.15;31.67;;;;;;;;;;5041897;28;20020;-72
2023/02/15 07:47:54;;;;;;;54.88;29.85;;;;;;;;;;5037827;28;20461;-74
2023/02/15 07:50:42;;;;;;;51.38;28.92;;;;;;;;;;5054287;28;20369;-74
2023/02/15 07:53:27;;;;;;;53.35;29.77;;;;;;;;;;5054582;28;20021;-74
2023/02/15 07:56:13;;;;;;;56.80;30.15;;;;;;;;;;5054810;28;20021;-74
2023/02/15 07:59:02;;;;;;;67.28;35.47;;;;;;;;;;5041096;28;20066;-74
2023/02/15 08:01:48;;;;;;;66.13;35.75;;;;;;;;;;5058216;28;20029;-76
2023/02/15 08:04:33;;;;;;;56.88;30.98;;;;;;;;;;5075385;28;20009;-74
2023/02/15 08:07:19;;;;;;;48.17;27.35;;;;;;;;;;5061690;28;20031;-74
2023/02/15 08:10:05;;;;;;;47.03;25.50;;;;;;;;;;5057569;28;20024;-76
2023/02/15 08:12:50;;;;;;;49.63;25.63;;;;;;;;;;5058537;28;20017;-76
2023/02/15 08:15:36;;;;;;;49.55;25.10;;;;;;;;;;5058376;28;20040;-76
2023/02/15 08:18:22;;;;;;;42.97;23.63;;;;;;;;;;5057296;28;20124;-76
2023/02/15 08:21:08;;;;;;;40.63;23.73;;;;;;;;;;5057817;28;20033;-76
2023/02/15 08:23:54;;;;;;;41.35;23.55;;;;;;;;;;5058708;28;20052;-76
2023/02/15 08:26:40;;;;;;;43.03;24.48;;;;;;;;;;5058572;28;20067;-74
2023/02/15 08:29:27;;;;;;;41.75;24.58;;;;;;;;;;5058588;28;20028;-75
2023/02/15 08:32:13;;;;;;;42.47;24.20;;;;;;;;;;5056819;28;20052;-75
2023/02/15 08:34:59;;;;;;;43.28;24.20;;;;;;;;;;5057237;28;20410;-75
2023/02/15 08:37:45;;;;;;;42.65;23.20;;;;;;;;;;5057724;28;20028;-75
2023/02/15 08:40:31;;;;;;;39.50;23.67;;;;;;;;;;5055800;28;20404;-74
2023/02/15 08:43:16;;;;;;;40.15;23.40;;;;;;;;;;5055679;28;20472;-75
2023/02/15 08:46:02;;;;;;;42.63;23.33;;;;;;;;;;5057838;28;20033;-76
2023/02/15 08:48:47;;;;;;;42.38;24.15;;;;;;;;;;5055227;28;20024;-72
2023/02/15 08:51:34;;;;;;;42.25;24.02;;;;;;;;;;5056873;28;20032;-75
2023/02/15 08:54:21;;;;;;;52.25;24.38;;;;;;;;;;5055944;28;20020;-76
2023/02/15 08:57:06;;;;;;;41.42;23.48;;;;;;;;;;5055160;28;20021;-75
2023/02/15 08:59:54;;;;;;;37.72;22.27;;;;;;;;;;5056045;28;20020;-75
2023/02/15 09:02:40;;;;;;;38.28;22.80;;;;;;;;;;5055147;28;20086;-74
2023/02/15 09:05:25;;;;;;;46.00;24.85;;;;;;;;;;5057591;28;20024;-74
2023/02/15 09:08:11;;;;;;;42.35;24.08;;;;;;;;;;5056943;28;20021;-75
2023/02/15 09:11:10;;;;;;;37.60;22.50;;;;;;;;;;5054785;28;20431;-76
2023/02/15 09:13:58;;;;;;;39.47;22.73;;;;;;;;;;5057378;28;20025;-75
2023/02/15 09:16:46;;;;;;;37.22;21.88;;;;;;;;;;5056415;28;20045;-75
2023/02/15 09:19:31;;;;;;;36.22;21.63;;;;;;;;;;5055490;28;20017;-74
2023/02/15 09:22:17;;;;;;;36.30;22.33;;;;;;;;;;5056636;28;20375;-75
2023/02/15 09:25:02;;;;;;;35.67;21.40;;;;;;;;;;5055178;28;20040;-76
2023/02/15 09:27:48;;;;;;;39.63;23.38;;;;;;;;;;5055432;28;20453;-74
2023/02/15 09:30:34;;;;;;;37.25;21.98;;;;;;;;;;5056512;28;20088;-75
2023/02/15 09:33:19;;;;;;;37.15;22.15;;;;;;;;;;5057321;28;20048;-75
2023/02/15 09:36:13;;;;;;;35.65;21.00;;;;;;;;;;5055937;28;20425;-74
2023/02/15 09:39:03;;;;;;;39.47;20.88;;;;;;;;;;5054666;28;20021;-74
2023/02/15 09:41:55;;;;;;;40.28;20.73;;;;;;;;;;5054663;28;20108;-73
2023/02/15 09:44:40;;;;;;;33.10;19.65;;;;;;;;;;5053887;28;20067;-75
2023/02/15 09:47:26;;;;;;;35.00;21.55;;;;;;;;;;5056344;28;20020;-75
2023/02/15 09:50:30;;;;;;;34.72;20.88;;;;;;;;;;5056887;28;20048;-75
2023/02/15 09:53:34;;;;;;;34.65;20.13;;;;;;;;;;5056006;28;20020;-75
2023/02/15 09:56:19;;;;;;;34.47;21.30;;;;;;;;;;5055004;28;20029;-75
2023/02/15 09:59:05;;;;;;;38.25;21.20;;;;;;;;;;5056580;28;20108;-74
2023/02/15 10:01:56;;;;;;;35.05;21.02;;;;;;;;;;5056876;28;20025;-75
2023/02/15 10:04:42;;;;;;;36.85;21.05;;;;;;;;;;5056804;28;20075;-74
2023/02/15 10:07:55;;;;;;;35.83;21.02;;;;;;;;;;5034214;28;20041;-71
2023/02/15 10:10:41;;;;;;;35.25;19.70;;;;;;;;;;5036653;28;20028;-72
2023/02/15 10:13:37;;;;;;;34.72;19.67;;;;;;;;;;5036455;28;20030;-73
2023/02/15 10:16:27;;;;;;;32.03;20.38;;;;;;;;;;5034787;28;20520;-73
2023/02/15 10:19:21;;;;;;;34.33;20.63;;;;;;;;;;5034322;28;20025;-73
2023/02/15 10:22:21;;;;;;;36.30;21.48;;;;;;;;;;5035727;28;20292;-75
2023/02/15 10:25:11;;;;;;;32.40;19.83;;;;;;;;;;5038379;28;20021;-74
2023/02/15 10:28:09;;;;;;;34.63;20.02;;;;;;;;;;5037291;28;20104;-74
2023/02/15 10:31:21;;;;;;;39.25;20.65;;;;;;;;;;5034837;28;20025;-73
2023/02/15 10:34:19;;;;;;;35.22;20.20;;;;;;;;;;5035101;28;20061;-73
2023/02/15 10:37:13;;;;;;;32.00;20.25;;;;;;;;;;5034530;28;20049;-74
2023/02/15 10:40:05;;;;;;;37.25;21.80;;;;;;;;;;5034937;28;20083;-73
2023/02/15 10:42:53;;;;;;;32.40;19.98;;;;;;;;;;5034519;28;20216;-72
2023/02/15 10:45:40;;;;;;;31.73;20.05;;;;;;;;;;5034692;28;20087;-73
2023/02/15 10:48:31;;;;;;;32.67;19.63;;;;;;;;;;5034859;28;20060;-73
2023/02/15 10:51:35;;;;;;;34.75;20.67;;;;;;;;;;5034114;28;20025;-74
2023/02/15 10:54:33;;;;;;;30.13;19.70;;;;;;;;;;5034117;28;20030;-73
2023/02/15 10:57:18;;;;;;;34.13;20.20;;;;;;;;;;5034414;28;20014;-73
2023/02/15 11:00:07;;;;;;;31.73;18.80;;;;;;;;;;5034371;28;20017;-73
2023/02/15 11:03:02;;;;;;;31.50;19.73;;;;;;;;;;5033982;28;20116;-73
2023/02/15 11:05:50;;;;;;;31.02;19.35;;;;;;;;;;5034556;28;20013;-73
2023/02/15 11:08:39;;;;;;;33.80;20.73;;;;;;;;;;5034553;28;20017;-73
2023/02/15 11:11:33;;;;;;;31.80;19.85;;;;;;;;;;5034536;28;20028;-72
2023/02/15 11:14:33;;;;;;;29.20;18.45;;;;;;;;;;5033710;28;20091;-73
2023/02/15 11:17:24;;;;;;;32.70;19.90;;;;;;;;;;5034140;28;20021;-74
2023/02/15 11:20:19;;;;;;;34.50;18.90;;;;;;;;;;5033285;28;20024;-73
2023/02/15 11:23:12;;;;;;;30.55;20.00;;;;;;;;;;5033591;28;20030;-72
2023/02/15 11:26:03;;;;;;;30.60;18.67;;;;;;;;;;5034065;28;20034;-74
2023/02/15 11:29:21;;;;;;;31.88;18.95;;;;;;;;;;5033715;28;20101;-74
2023/02/15 11:32:38;;;;;;;38.10;19.85;;;;;;;;;;5008726;28;20466;-75
2023/02/15 11:35:33;;;;;;;43.83;19.50;;;;;;;;;;5009650;28;20048;-74
2023/02/15 11:38:21;;;;;;;29.90;19.70;;;;;;;;;;5033742;28;20493;-74
2023/02/15 11:41:10;;;;;;;31.42;19.38;;;;;;;;;;5033243;28;20434;-75
2023/02/15 11:44:15;;;;;;;34.58;19.05;;;;;;;;;;5033959;28;20041;-75
2023/02/15 11:47:01;;;;;;;30.27;18.88;;;;;;;;;;5033561;28;20030;-75
2023/02/15 11:49:47;;;;;;;30.40;19.80;;;;;;;;;;5033808;28;20358;-74
2023/02/15 11:52:32;;;;;;;30.92;18.52;;;;;;;;;;5033642;28;20497;-74
2023/02/15 11:55:20;;;;;;;30.35;18.60;;;;;;;;;;5033194;28;20075;-75
2023/02/15 11:58:21;;;;;;;30.63;18.58;;;;;;;;;;5033156;28;20025;-75
2023/02/15 12:01:19;;;;;;;29.60;17.95;;;;;;;;;;5033385;28;20017;-76
2023/02/15 12:04:14;;;;;;;27.52;17.23;;;;;;;;;;5033097;28;20033;-74
2023/02/15 12:07:04;;;;;;;31.95;16.67;;;;;;;;;;5034461;28;20361;-74
2023/02/15 12:10:04;;;;;;;26.92;17.05;;;;;;;;;;5037796;28;20022;-74
2023/02/15 12:13:07;;;;;;;24.50;16.55;;;;;;;;;;5036549;28;20026;-74
2023/02/15 12:15:55;;;;;;;28.73;17.27;;;;;;;;;;5037397;28;20009;-74
2023/02/15 12:18:44;;;;;;;29.42;17.10;;;;;;;;;;5037644;28;20022;-74
2023/02/15 12:21:40;;;;;;;29.38;17.63;;;;;;;;;;5036732;28;20430;-75
2023/02/15 12:24:28;;;;;;;28.45;17.33;;;;;;;;;;5036947;28;20370;-74
2023/02/15 12:27:19;;;;;;;32.50;16.25;;;;;;;;;;5037325;28;20025;-74
2023/02/15 12:30:27;;;;;;;26.08;15.75;;;;;;;;;;5037487;28;20017;-74
2023/02/15 12:33:31;;;;;;;24.20;15.45;;;;;;;;;;5039271;28;20395;-74
2023/02/15 12:36:19;;;;;;;24.13;15.48;;;;;;;;;;5038432;28;20028;-74
2023/02/15 12:39:27;;;;;;;24.40;14.82;;;;;;;;;;5038807;28;20017;-74
2023/02/15 12:42:16;;;;;;;21.98;13.65;;;;;;;;;;5044397;28;20029;-74
2023/02/15 12:45:20;;;;;;;26.65;14.35;;;;;;;;;;5047137;28;20067;-73
2023/02/15 12:48:15;;;;;;;22.70;14.57;;;;;;;;;;5046051;28;20522;-77
2023/02/15 12:51:07;;;;;;;26.35;15.77;;;;;;;;;;5039875;28;20053;-75
2023/02/15 12:53:52;;;;;;;22.38;14.43;;;;;;;;;;5037566;28;20091;-73
2023/02/15 12:56:38;;;;;;;25.35;14.70;;;;;;;;;;5043311;28;20077;-74
2023/02/15 12:59:24;;;;;;;22.27;13.52;;;;;;;;;;5045172;28;20079;-76
2023/02/15 13:02:18;;;;;;;23.15;14.13;;;;;;;;;;5048637;28;20084;-72
2023/02/15 13:05:13;;;;;;;22.35;13.82;;;;;;;;;;5047595;28;20051;-76
2023/02/15 13:08:01;;;;;;;24.10;13.65;;;;;;;;;;5067989;28;20024;-76
2023/02/15 13:10:54;;;;;;;21.98;14.10;;;;;;;;;;5066645;28;20052;-75
2023/02/15 13:13:52;;;;;;;22.40;13.73;;;;;;;;;;5057449;28;20017;-74
2023/02/15 13:16:38;;;;;;;23.10;13.93;;;;;;;;;;5055812;28;20392;-75
2023/02/15 13:19:56;;;;;;;27.80;14.32;;;;;;;;;;5054948;28;20017;-75
2023/02/15 13:22:43;;;;;;;27.13;14.63;;;;;;;;;;5051852;28;20041;-75
2023/02/15 13:25:31;;;;;;;20.52;12.90;;;;;;;;;;5055600;28;20017;-75
2023/02/15 13:28:18;;;;;;;22.08;13.85;;;;;;;;;;5056349;28;20168;-75
2023/02/15 13:31:11;;;;;;;21.30;13.25;;;;;;;;;;5058889;28;20346;-75
2023/02/15 13:33:59;;;;;;;23.88;14.60;;;;;;;;;;5060383;28;20032;-76
2023/02/15 13:37:01;;;;;;;24.95;15.00;;;;;;;;;;5060806;28;20075;-76
2023/02/15 13:39:59;;;;;;;22.98;14.65;;;;;;;;;;5063396;28;20377;-75
2023/02/15 13:42:48;;;;;;;22.30;14.50;;;;;;;;;;5072844;28;20029;-75
2023/02/15 13:45:37;;;;;;;26.00;14.82;;;;;;;;;;5057202;28;20020;-71
2023/02/15 13:48:28;;;;;;;23.25;14.98;;;;;;;;;;5054935;28;20036;-71
2023/02/15 13:51:17;;;;;;;23.65;14.40;;;;;;;;;;5054519;28;20427;-71
2023/02/15 13:54:02;;;;;;;29.58;14.77;;;;;;;;;;5054730;28;20365;-71
2023/02/15 13:56:48;;;;;;;30.55;14.70;;;;;;;;;;5055026;28;20369;-72
2023/02/15 13:59:44;;;;;;;23.25;14.40;;;;;;;;;;5054383;28;20017;-71
2023/02/15 14:02:33;;;;;;;23.42;13.95;;;;;;;;;;5054867;28;20021;-72
2023/02/15 14:05:21;;;;;;;24.08;14.93;;;;;;;;;;5065005;28;20021;-71
2023/02/15 14:08:07;;;;;;;28.20;14.82;;;;;;;;;;5073436;28;20495;-71
2023/02/15 14:11:11;;;;;;;23.10;14.55;;;;;;;;;;5074433;28;20105;-72
2023/02/15 14:14:15;;;;;;;24.73;13.80;;;;;;;;;;5073740;28;20407;-71
2023/02/15 14:17:00;;;;;;;23.08;14.57;;;;;;;;;;5073408;28;20020;-71
2023/02/15 14:20:06;;;;;;;24.48;14.63;;;;;;;;;;5073769;28;20428;-71
2023/02/15 14:23:11;;;;;;;23.13;13.70;;;;;;;;;;5073159;28;20441;-73
2023/02/15 14:26:02;;;;;;;25.35;13.93;;;;;;;;;;5073800;28;20020;-72
2023/02/15 14:28:47;;;;;;;24.58;14.40;;;;;;;;;;5073332;28;20031;-72
2023/02/15 14:31:41;;;;;;;28.77;14.23;;;;;;;;;;5073049;28;20361;-71
2023/02/15 14:34:34;;;;;;;22.77;12.93;;;;;;;;;;5073251;28;20020;-74
2023/02/15 14:37:46;;;;;;;26.77;14.35;;;;;;;;;;5073657;28;20052;-72
2023/02/15 14:43:49;;;;;;;24.60;13.80;;;;;;;;;;5074091;28;20044;-74
2023/02/15 14:46:41;;;;;;;24.50;13.20;;;;;;;;;;5073855;28;20035;-72
2023/02/15 14:49:30;;;;;;;38.67;14.48;;;;;;;;;;5073265;28;20365;-73
2023/02/15 14:52:21;;;;;;;22.83;13.95;;;;;;;;;;5052011;28;20416;-73
2023/02/15 14:55:07;;;;;;;23.00;14.40;;;;;;;;;;5035673;28;20405;-74
2023/02/15 14:57:58;;;;;;;24.65;14.90;;;;;;;;;;5034156;28;20072;-73
2023/02/15 15:00:43;;;;;;;25.38;14.48;;;;;;;;;;5032756;28;20450;-73
2023/02/15 15:03:29;;;;;;;25.50;14.45;;;;;;;;;;5033368;28;20060;-72
2023/02/15 15:06:26;;;;;;;24.00;15.07;;;;;;;;;;5033044;28;20022;-74
2023/02/15 15:09:11;;;;;;;30.75;14.68;;;;;;;;;;5035035;28;20037;-72
2023/02/15 15:12:16;;;;;;;31.75;16.15;;;;;;;;;;5034488;28;20029;-71
2023/02/15 15:15:02;;;;;;;24.30;14.70;;;;;;;;;;5034471;28;20501;-73
2023/02/15 15:17:53;;;;;;;27.52;15.95;;;;;;;;;;5034889;28;20021;-74
2023/02/15 15:20:40;;;;;;;25.58;15.75;;;;;;;;;;5033645;28;20430;-74
2023/02/15 15:23:38;;;;;;;27.58;15.43;;;;;;;;;;5034729;28;20470;-73
2023/02/15 15:26:26;;;;;;;39.17;16.05;;;;;;;;;;5035959;28;20433;-72
2023/02/15 15:29:12;;;;;;;50.15;16.13;;;;;;;;;;5036090;28;20030;-72
2023/02/15 15:31:59;;;;;;;35.38;15.52;;;;;;;;;;5035225;28;20046;-71
2023/02/15 15:35:00;;;;;;;34.90;15.82;;;;;;;;;;5035064;28;20402;-72
2023/02/15 15:38:01;;;;;;;29.95;15.30;;;;;;;;;;5034601;28;20017;-73
2023/02/15 15:41:05;;;;;;;33.17;15.18;;;;;;;;;;5035490;28;20017;-72
2023/02/15 15:44:00;;;;;;;24.95;14.60;;;;;;;;;;5038226;28;20029;-72
2023/02/15 15:47:04;;;;;;;32.20;14.85;;;;;;;;;;5038308;28;20045;-73
2023/02/15 15:49:54;;;;;;;43.50;16.48;;;;;;;;;;5038069;28;20036;-72
2023/02/15 15:52:44;;;;;;;73.68;21.42;;;;;;;;;;5037962;28;20022;-72
2023/02/15 15:55:31;;;;;;;40.55;17.67;;;;;;;;;;5037977;28;20021;-73
2023/02/15 15:58:18;;;;;;;35.08;18.17;;;;;;;;;;5037445;28;20060;-73
2023/02/15 16:01:08;;;;;;;35.40;17.45;;;;;;;;;;5037355;28;20470;-71
2023/02/15 16:03:56;;;;;;;34.78;19.05;;;;;;;;;;5037686;28;20040;-73
2023/02/15 16:06:41;;;;;;;49.25;20.25;;;;;;;;;;5036716;28;20108;-73
2023/02/15 16:09:27;;;;;;;45.97;20.45;;;;;;;;;;5037243;28;20026;-74
2023/02/15 16:12:15;;;;;;;43.88;21.30;;;;;;;;;;5036886;28;20083;-71
2023/02/15 16:15:11;;;;;;;46.00;20.70;;;;;;;;;;5036412;28;20190;-73
2023/02/15 16:17:57;;;;;;;43.75;24.50;;;;;;;;;;5037003;28;20075;-73
2023/02/15 16:20:54;;;;;;;52.20;24.20;;;;;;;;;;5038068;28;20027;-74
2023/02/15 16:23:50;;;;;;;86.75;36.80;;;;;;;;;;5036582;28;20445;-72
2023/02/15 16:26:41;;;;;;;82.85;40.70;;;;;;;;;;5036961;28;20024;-72
2023/02/15 16:29:29;;;;;;;94.30;45.65;;;;;;;;;;5035886;28;20433;-72
2023/02/15 16:32:22;;;;;;;97.85;46.25;;;;;;;;;;5037230;28;20132;-75
2023/02/15 16:35:14;;;;;;;91.53;45.03;;;;;;;;;;5040188;28;20365;-72
2023/02/15 16:38:00;;;;;;;77.38;39.63;;;;;;;;;;5037231;28;20113;-73
2023/02/15 16:40:48;;;;;;;83.68;39.97;;;;;;;;;;5037113;28;20021;-73
2023/02/15 16:43:33;;;;;;;74.05;37.83;;;;;;;;;;5036476;28;20026;-74
2023/02/15 16:46:27;;;;;;;79.70;37.03;;;;;;;;;;5036689;28;20037;-73
2023/02/15 16:49:17;;;;;;;63.83;32.55;;;;;;;;;;5036252;28;20036;-72
2023/02/15 16:52:09;;;;;;;57.03;30.05;;;;;;;;;;5037751;28;20033;-73